Time;durP1;ratioP1;P1;durP2;ratioP2;P2;SDS_P1;SDS_P2;PMS_P1;PMS_P2;Temp;Humidity;BMP_temperature;BMP_pressure;BME280_temperature;BME280_humidity;BME280_pressure;Samples;Min_cycle;Max_cycle;Signal;HPM_P1;HPM_P2
2023/06/22 00:03:22;;;;;;;6.93;4.85;;;;;;;21.04;53.88;100798.50;10498351;28;20044;-73
2023/06/22 00:08:24;;;;;;;5.15;4.00;;;;;;;21.07;54.22;100792.22;10476265;28;20055;-72
2023/06/22 00:13:30;;;;;;;6.80;4.10;;;;;;;20.88;54.92;100794.75;10509883;28;20072;-72
2023/06/22 00:18:32;;;;;;;5.60;4.00;;;;;;;20.71;54.82;100784.63;10523542;28;20037;-72
2023/06/22 00:23:34;;;;;;;8.23;4.50;;;;;;;20.62;55.26;100778.31;10509670;28;20424;-72
2023/06/22 00:28:37;;;;;;;6.97;4.57;;;;;;;20.61;55.64;100777.50;10523105;28;20251;-72
2023/06/22 00:33:39;;;;;;;7.13;4.57;;;;;;;20.54;55.69;100771.69;10489108;28;20041;-72
2023/06/22 00:38:42;;;;;;;11.40;4.78;;;;;;;20.43;56.19;100767.72;10485255;28;20063;-73
2023/06/22 00:43:44;;;;;;;8.18;4.57;;;;;;;20.38;56.20;100760.34;10472330;28;20427;-73
2023/06/22 00:48:47;;;;;;;10.05;4.70;;;;;;;20.37;56.33;100757.91;10473052;28;20060;-71
2023/06/22 00:53:51;;;;;;;6.20;4.93;;;;;;;20.12;56.89;100757.81;10481261;28;20048;-72
2023/06/22 00:58:54;;;;;;;6.20;4.05;;;;;;;20.35;56.36;100755.47;10485980;28;20037;-72
2023/06/22 01:03:57;;;;;;;5.60;3.83;;;;;;;20.46;55.74;100764.22;10479667;28;20502;-72
2023/06/22 01:09:06;;;;;;;7.95;4.50;;;;;;;20.43;55.89;100762.13;10491333;28;20043;-72
2023/06/22 01:14:08;;;;;;;6.30;4.20;;;;;;;20.21;56.26;100757.75;10469166;28;20048;-73
2023/06/22 01:19:28;;;;;;;7.47;4.30;;;;;;;20.47;55.51;100765.84;10476240;28;20561;-72
2023/06/22 01:24:44;;;;;;;7.63;5.00;;;;;;;20.55;55.60;100751.03;10497769;28;20056;-72
2023/06/22 01:29:51;;;;;;;6.57;4.20;;;;;;;20.61;55.12;100758.00;10479715;28;20410;-72
2023/06/22 01:34:53;;;;;;;6.50;4.55;;;;;;;20.62;54.97;100754.03;10472846;28;20487;-72
2023/06/22 01:39:56;;;;;;;8.10;4.25;;;;;;;20.63;55.17;100749.28;10478985;28;20049;-72
2023/06/22 01:44:59;;;;;;;5.63;4.20;;;;;;;20.58;55.14;100749.50;10464143;28;20045;-72
2023/06/22 01:50:01;;;;;;;6.20;4.68;;;;;;;20.49;55.40;100754.38;10477256;28;20068;-72
2023/06/22 01:55:05;;;;;;;9.38;4.50;;;;;;;20.59;55.26;100737.19;10515276;28;20430;-73
2023/06/22 02:00:12;;;;;;;8.40;4.47;;;;;;;20.66;55.20;100732.69;10495128;28;20503;-72
2023/06/22 02:05:45;;;;;;;7.90;6.15;;;;;;;20.72;55.39;100736.06;10494508;28;20581;-72
2023/06/22 02:10:49;;;;;;;6.82;4.75;;;;;;;20.75;55.30;100738.16;10491329;28;20388;-72
2023/06/22 02:15:51;;;;;;;7.38;4.70;;;;;;;20.80;55.05;100732.31;10482516;28;20049;-72
2023/06/22 02:20:53;;;;;;;7.32;5.03;;;;;;;20.83;55.50;100725.28;10469854;28;20517;-72
2023/06/22 02:25:56;;;;;;;6.43;4.40;;;;;;;20.81;55.34;100722.78;10498559;28;20045;-72
2023/06/22 02:31:00;;;;;;;7.47;4.65;;;;;;;20.94;54.79;100710.47;10499599;28;20036;-72
2023/06/22 02:36:08;;;;;;;7.55;4.80;;;;;;;21.03;55.04;100713.16;10488388;28;20064;-72
2023/06/22 02:41:13;;;;;;;7.10;4.97;;;;;;;21.03;55.10;100718.75;10510832;28;20044;-72
2023/06/22 02:46:40;;;;;;;8.60;5.20;;;;;;;21.18;55.11;100717.22;10525789;28;20036;-72
2023/06/22 02:51:44;;;;;;;;;;;;;;;21.53;54.15;100711.97;10504969;28;20140;-72
2023/06/22 02:56:47;;;;;;;10.77;5.50;;;;;;;22.07;53.33;100722.72;10492692;28;19920;-72
2023/06/22 03:01:50;;;;;;;9.93;5.30;;;;;;;22.08;52.63;100743.91;10499645;28;20122;-72
2023/06/22 03:07:01;;;;;;;8.50;6.05;;;;;;;21.98;53.59;100734.00;10483567;28;20037;-72
2023/06/22 03:12:05;;;;;;;8.73;6.35;;;;;;;22.02;53.21;100731.31;10460329;28;20064;-72
2023/06/22 03:17:29;;;;;;;10.93;6.18;;;;;;;21.71;54.26;100741.22;10486394;28;20045;-72
2023/06/22 03:22:32;;;;;;;11.05;6.05;;;;;;;22.15;53.40;100722.53;10472636;28;20061;-72
2023/06/22 03:27:34;;;;;;;11.85;6.35;;;;;;;22.59;52.97;100730.09;10480597;28;20041;-72
2023/06/22 03:32:36;;;;;;;15.45;6.57;;;;;;;22.73;52.06;100724.84;10491500;28;20044;-72
2023/06/22 03:37:41;;;;;;;12.23;6.50;;;;;;;22.93;51.34;100718.22;10493208;28;20035;-72
2023/06/22 03:42:43;;;;;;;9.52;5.82;;;;;;;23.41;49.81;100702.91;10484161;28;20043;-72
2023/06/22 03:47:45;;;;;;;14.05;6.15;;;;;;;24.01;48.94;100708.19;10501309;28;20032;-73
2023/06/22 03:52:48;;;;;;;12.55;5.90;;;;;;;24.50;47.39;100707.53;10526026;28;20040;-73
2023/06/22 03:57:50;;;;;;;12.18;6.10;;;;;;;24.76;47.40;100698.34;10491592;28;20444;-73
2023/06/22 04:02:52;;;;;;;11.77;6.13;;;;;;;25.26;46.19;100699.97;10487342;28;20053;-73
2023/06/22 04:07:55;;;;;;;8.13;5.97;;;;;;;25.53;45.41;100690.31;10510421;28;20044;-74
2023/06/22 04:12:57;;;;;;;9.15;5.85;;;;;;;25.71;44.83;100684.13;10521424;28;20048;-73
2023/06/22 04:17:59;;;;;;;9.10;5.60;;;;;;;26.43;43.39;100683.75;10504949;28;20506;-73
2023/06/22 04:23:01;;;;;;;8.75;6.00;;;;;;;26.52;42.57;100681.38;10494443;28;20408;-73
2023/06/22 04:28:04;;;;;;;11.85;6.40;;;;;;;25.95;43.99;100680.00;10483161;28;20044;-73
2023/06/22 04:33:06;;;;;;;10.27;6.03;;;;;;;26.15;44.65;100672.97;10503240;28;20048;-73
2023/06/22 04:38:08;;;;;;;9.77;6.53;;;;;;;26.60;43.20;100679.47;10498802;28;20044;-73
2023/06/22 04:43:10;;;;;;;12.52;6.88;;;;;;;26.91;43.16;100678.09;10468557;28;20049;-73
2023/06/22 05:31:54;;;;;;;11.55;6.35;;;;;;;27.23;41.85;100631.22;10402742;28;20415;-73
2023/06/22 06:12:21;;;;;;;11.65;5.97;;;;;;;29.71;36.72;100590.13;10421272;28;20515;-73
2023/06/22 06:17:23;;;;;;;8.65;5.88;;;;;;;30.25;36.28;100582.09;10408105;28;20057;-73
2023/06/22 06:22:25;;;;;;;8.07;6.25;;;;;;;29.96;36.39;100569.34;10425744;28;20061;-73
2023/06/22 06:27:29;;;;;;;11.43;6.28;;;;;;;29.42;37.22;100564.00;10434915;28;20041;-73
2023/06/22 06:32:31;;;;;;;10.43;6.82;;;;;;;29.99;36.37;100552.34;10502756;28;20506;-73
2023/06/22 06:37:38;;;;;;;9.30;6.05;;;;;;;30.74;35.13;100551.72;10508027;28;20043;-74
2023/06/22 06:42:45;;;;;;;9.02;6.28;;;;;;;30.68;33.84;100552.59;10501305;28;20040;-74
2023/06/22 06:47:48;;;;;;;10.13;5.90;;;;;;;31.05;34.03;100551.75;10521028;28;20052;-73
2023/06/22 06:52:50;;;;;;;8.70;5.88;;;;;;;30.45;34.50;100551.19;10489386;28;20049;-73
2023/06/22 06:57:52;;;;;;;10.45;5.97;;;;;;;31.03;33.93;100546.53;10490174;28;20507;-73
2023/06/22 07:02:54;;;;;;;7.65;5.70;;;;;;;31.92;32.26;100539.66;10484895;28;20029;-73
2023/06/22 07:07:57;;;;;;;8.75;5.60;;;;;;;32.24;31.65;100544.00;10507337;28;20053;-74
2023/06/22 07:12:59;;;;;;;7.53;5.65;;;;;;;32.66;31.30;100551.00;10512833;28;20231;-73
2023/06/22 07:18:01;;;;;;;8.50;5.45;;;;;;;32.33;30.83;100547.94;10528984;28;20041;-73
2023/06/22 07:23:03;;;;;;;9.20;5.68;;;;;;;32.37;31.41;100539.34;10510208;28;20060;-73
2023/06/22 07:28:06;;;;;;;7.05;5.22;;;;;;;32.68;30.24;100537.16;10514668;28;20044;-74
2023/06/22 07:33:09;;;;;;;10.90;5.18;;;;;;;33.06;30.67;100529.09;10510585;28;20052;-72
2023/06/22 07:38:16;;;;;;;10.43;6.07;;;;;;;32.88;30.30;100518.09;10513982;28;20060;-73
2023/06/22 07:43:18;;;;;;;7.63;5.60;;;;;;;32.65;30.42;100513.25;10506399;28;20521;-73
2023/06/22 07:48:22;;;;;;;6.07;5.18;;;;;;;32.28;30.91;100507.84;10512125;28;20052;-74
2023/06/22 07:53:24;;;;;;;9.15;5.78;;;;;;;32.80;30.77;100504.41;10526283;28;20056;-75
2023/06/22 07:58:26;;;;;;;9.85;5.30;;;;;;;32.80;30.67;100493.06;10491425;28;20041;-74
2023/06/22 08:03:28;;;;;;;7.45;5.00;;;;;;;32.87;30.46;100492.97;10497435;28;20392;-73
2023/06/22 08:08:31;;;;;;;9.35;5.25;;;;;;;32.55;30.81;100483.00;10508878;28;20078;-72
2023/06/22 08:13:33;;;;;;;8.55;5.63;;;;;;;33.14;30.03;100484.25;10476739;28;20045;-73
2023/06/22 08:18:41;;;;;;;10.98;5.90;;;;;;;33.45;29.72;100479.91;10480202;28;20029;-73
2023/06/22 08:23:48;;;;;;;12.70;6.32;;;;;;;33.42;29.13;100469.41;10485864;28;20388;-73
2023/06/22 08:28:50;;;;;;;6.75;5.78;;;;;;;33.39;29.88;100472.34;10512392;28;20043;-73
2023/06/22 08:33:53;;;;;;;9.73;6.35;;;;;;;32.97;30.21;100469.97;10507432;28;20434;-73
2023/06/22 08:39:03;;;;;;;8.75;6.28;;;;;;;32.47;31.21;100455.97;10490868;28;20084;-73
2023/06/22 08:44:05;;;;;;;7.63;6.32;;;;;;;32.91;30.58;100454.69;10503862;28;20049;-73
2023/06/22 08:49:08;;;;;;;15.30;7.10;;;;;;;33.32;29.48;100455.41;10485691;28;20534;-72
2023/06/22 08:54:10;;;;;;;11.15;6.20;;;;;;;32.98;29.99;100445.22;10487293;28;20056;-72
2023/06/22 08:59:37;;;;;;;9.07;6.25;;;;;;;32.84;30.61;100437.00;10506440;28;20479;-72
2023/06/22 09:04:39;;;;;;;11.13;6.55;;;;;;;32.90;30.63;100438.88;10457699;28;20107;-72
2023/06/22 09:09:46;;;;;;;10.15;5.78;;;;;;;32.71;31.35;100436.03;10485141;28;20045;-73
2023/06/22 09:14:48;;;;;;;10.43;6.53;;;;;;;32.75;31.40;100428.22;10486871;28;20033;-72
2023/06/22 09:19:50;;;;;;;8.65;5.97;;;;;;;33.01;30.96;100421.59;10485714;28;20510;-72
2023/06/22 09:24:53;;;;;;;9.80;6.22;;;;;;;32.53;31.59;100417.31;10488171;28;20041;-73
2023/06/22 09:29:55;;;;;;;7.75;6.18;;;;;;;31.80;32.48;100418.25;10495974;28;20064;-72
2023/06/22 09:34:57;;;;;;;12.65;6.95;;;;;;;31.49;33.29;100414.69;10476076;28;20040;-73
2023/06/22 09:40:00;;;;;;;10.95;6.50;;;;;;;31.16;33.30;100416.38;10507243;28;20045;-73
2023/06/22 09:45:02;;;;;;;11.05;6.47;;;;;;;31.14;33.88;100402.63;10504436;28;20048;-73
2023/06/22 09:50:05;;;;;;;6.93;6.15;;;;;;;30.93;33.89;100393.66;10505044;28;20052;-73
2023/06/22 09:55:08;;;;;;;15.88;7.95;;;;;;;30.80;34.53;100388.53;10523524;28;20043;-74
2023/06/22 10:00:13;;;;;;;13.38;6.28;;;;;;;30.66;34.56;100385.09;10507372;28;20051;-74
2023/06/22 10:05:20;;;;;;;9.23;6.88;;;;;;;30.59;35.36;100380.31;10498942;28;20045;-75
2023/06/22 10:10:22;;;;;;;13.50;6.60;;;;;;;30.49;34.19;100379.19;10503944;28;20041;-75
2023/06/22 10:15:26;;;;;;;9.57;7.07;;;;;;;30.64;34.27;100368.53;10505168;28;20049;-75
2023/06/22 10:20:29;;;;;;;10.70;6.68;;;;;;;30.75;34.80;100372.03;10514799;28;20043;-75
2023/06/22 10:25:31;;;;;;;11.35;7.45;;;;;;;30.43;35.13;100361.09;10494305;28;20036;-78
2023/06/22 10:30:33;;;;;;;12.88;7.68;;;;;;;30.38;36.09;100361.56;10476163;28;20056;-76
2023/06/22 10:35:37;;;;;;;7.57;5.95;;;;;;;30.42;35.38;100336.03;10494748;28;20060;-74
2023/06/22 10:40:39;;;;;;;8.90;6.22;;;;;;;30.13;35.67;100341.22;10488058;28;20052;-75
2023/06/22 10:45:42;;;;;;;9.10;5.93;;;;;;;30.13;35.46;100333.53;10496152;28;20060;-73
2023/06/22 10:50:44;;;;;;;10.98;6.10;;;;;;;30.30;35.47;100326.84;10510736;28;20415;-73
2023/06/22 10:55:46;;;;;;;6.90;5.75;;;;;;;30.26;35.49;100316.81;10489350;28;20060;-74
2023/06/22 11:00:48;;;;;;;11.38;7.78;;;;;;;29.91;35.11;100326.50;10494698;28;20056;-76
2023/06/22 11:05:51;;;;;;;11.45;6.50;;;;;;;29.41;36.89;100321.28;10492516;28;20065;-74
2023/06/22 11:10:53;;;;;;;9.77;6.68;;;;;;;29.20;37.26;100307.34;10512584;28;20047;-72
2023/06/22 11:15:55;;;;;;;8.32;6.25;;;;;;;29.39;38.27;100301.13;10557230;28;20041;-72
2023/06/22 11:20:58;;;;;;;13.75;6.55;;;;;;;29.47;37.96;100301.88;10496463;28;20514;-72
2023/06/22 11:26:05;;;;;;;7.05;5.47;;;;;;;29.51;36.67;100306.31;10483585;28;20041;-72
2023/06/22 11:31:07;;;;;;;7.82;5.60;;;;;;;29.59;36.68;100298.53;10493084;28;20052;-73
2023/06/22 11:36:10;;;;;;;8.80;6.40;;;;;;;29.33;36.04;100291.47;10517061;28;20554;-72
2023/06/22 11:41:13;;;;;;;8.70;5.72;;;;;;;29.17;36.37;100291.22;10512724;23;20419;-89
2023/06/22 11:46:15;;;;;;;6.75;5.53;;;;;;;29.07;37.04;100285.25;10455022;28;20049;-89
2023/06/22 11:51:18;;;;;;;7.07;4.80;;;;;;;28.74;38.11;100285.84;10456519;28;20037;-88
2023/06/22 11:56:20;;;;;;;8.60;5.28;;;;;;;28.21;41.09;100298.22;10444437;28;20045;-88
2023/06/22 12:01:22;;;;;;;8.15;5.55;;;;;;;27.75;42.17;100282.25;10461210;28;20499;-89
2023/06/22 12:06:29;;;;;;;7.97;4.78;;;;;;;27.07;42.73;100273.03;10484018;28;20092;-93
2023/06/22 12:11:31;;;;;;;8.05;5.70;;;;;;;26.75;43.02;100281.44;10463419;28;20038;-93
2023/06/22 12:16:59;;;;;;;10.75;5.70;;;;;;;26.41;44.25;100292.22;10464773;28;20046;-93
2023/06/22 12:22:02;;;;;;;9.02;5.93;;;;;;;26.40;44.13;100296.25;10506661;28;20167;-90
2023/06/22 12:27:05;;;;;;;10.55;5.47;;;;;;;26.31;43.94;100270.44;10455469;28;20036;-87
2023/06/22 12:32:07;;;;;;;7.60;4.35;;;;;;;26.59;42.66;100275.38;10478514;28;20055;-86
2023/06/22 12:37:09;;;;;;;7.18;5.07;;;;;;;26.62;42.87;100281.00;10470389;28;20044;-87
2023/06/22 12:42:12;;;;;;;8.15;4.82;;;;;;;26.46;44.16;100277.75;10467823;28;20519;-87
2023/06/22 12:47:14;;;;;;;9.07;5.60;;;;;;;26.49;44.57;100282.56;10507826;28;20040;-89
2023/06/22 12:52:17;;;;;;;9.57;5.60;;;;;;;26.61;44.17;100268.16;10480392;28;20040;-87
2023/06/22 12:57:25;;;;;;;8.90;5.65;;;;;;;26.89;44.50;100264.53;10471955;28;20056;-89
2023/06/22 13:02:27;;;;;;;8.07;5.35;;;;;;;27.12;44.27;100269.84;10482785;28;20067;-87
2023/06/22 13:07:29;;;;;;;8.18;5.25;;;;;;;27.33;43.82;100278.25;10483521;28;20044;-87
2023/06/22 13:12:32;;;;;;;6.88;5.82;;;;;;;27.15;43.97;100274.66;10457058;28;20036;-87
2023/06/22 13:17:34;;;;;;;13.90;6.85;;;;;;;26.72;45.52;100268.16;10476123;28;20043;-88
2023/06/22 13:22:43;;;;;;;11.43;7.78;;;;;;;26.15;48.80;100277.22;10462759;28;20036;-88
2023/06/22 13:27:46;;;;;;;13.45;8.75;;;;;;;25.36;50.80;100289.19;10462927;28;20037;-87
2023/06/22 13:32:48;;;;;;;10.45;7.53;;;;;;;25.17;51.35;100301.47;10480635;28;20036;-86
2023/06/22 13:37:50;;;;;;;12.27;8.45;;;;;;;25.20;51.82;100294.28;10454243;28;20056;-87
2023/06/22 13:42:52;;;;;;;11.07;8.90;;;;;;;25.08;52.04;100306.59;10488230;28;20049;-89
2023/06/22 13:47:55;;;;;;;9.48;8.15;;;;;;;24.91;52.83;100313.63;10458042;28;20044;-87
2023/06/22 13:52:58;;;;;;;10.65;8.35;;;;;;;24.78;53.96;100303.06;10482797;28;20590;-93
2023/06/22 13:58:00;;;;;;;10.52;8.38;;;;;;;24.74;55.05;100308.66;10465490;28;20400;-88
2023/06/22 14:03:03;;;;;;;11.95;8.00;;;;;;;24.80;55.88;100315.50;10497931;28;20167;-88
2023/06/22 14:08:05;;;;;;;9.70;7.80;;;;;;;24.71;56.65;100317.03;10476305;28;20388;-87
2023/06/22 14:13:07;;;;;;;12.50;8.35;;;;;;;24.68;57.11;100323.41;10469618;28;20044;-89
2023/06/22 14:18:09;;;;;;;14.68;8.25;;;;;;;24.23;58.61;100323.25;10475747;28;20550;-90
2023/06/22 14:23:11;;;;;;;9.88;8.20;;;;;;;23.72;60.42;100334.97;10484056;28;20051;-86
2023/06/22 14:28:18;;;;;;;11.30;8.48;;;;;;;23.28;61.75;100345.03;10481402;28;20496;-88
2023/06/22 14:33:20;;;;;;;9.95;7.13;;;;;;;22.80;64.34;100358.53;10464325;28;20047;-84
2023/06/22 14:38:28;;;;;;;10.23;7.13;;;;;;;22.71;66.97;100349.56;10506094;28;20032;-86
2023/06/22 14:43:30;;;;;;;10.90;6.18;;;;;;;22.20;68.43;100353.31;10479855;28;20056;-88
2023/06/22 14:48:32;;;;;;;9.35;6.50;;;;;;;21.76;69.33;100361.09;10477215;28;20075;-93
2023/06/22 14:53:35;;;;;;;8.98;6.47;;;;;;;21.48;70.75;100338.88;10449617;28;20033;-86
2023/06/22 14:58:40;;;;;;;9.85;6.88;;;;;;;21.26;72.13;100331.97;10492837;28;20048;-88
2023/06/22 15:03:42;;;;;;;9.30;6.95;;;;;;;21.23;73.21;100326.28;10522978;28;20049;-85
2023/06/22 15:08:44;;;;;;;11.18;7.00;;;;;;;21.03;75.49;100334.56;10496748;28;20040;-88
2023/06/22 15:13:46;;;;;;;15.15;7.45;;;;;;;20.94;77.23;100328.31;10490225;28;20059;-88
2023/06/22 15:18:49;;;;;;;10.77;7.65;;;;;;;20.72;77.85;100328.94;10469340;28;20051;-88
2023/06/22 15:23:51;;;;;;;10.98;8.18;;;;;;;20.59;79.63;100307.84;10460771;28;20047;-87
2023/06/22 15:28:53;;;;;;;15.63;9.30;;;;;;;20.42;80.35;100298.63;10475860;28;20052;-86
2023/06/22 15:33:55;;;;;;;13.85;9.20;;;;;;;20.22;81.92;100282.09;10481953;28;20052;-87
2023/06/22 15:38:57;;;;;;;12.30;7.85;;;;;;;20.09;81.84;100276.56;10492511;28;20036;-86
2023/06/22 15:43:59;;;;;;;9.93;6.70;;;;;;;20.07;81.56;100269.75;10493493;28;20036;-85
2023/06/22 15:49:05;;;;;;;10.90;6.22;;;;;;;19.76;80.57;100270.41;10452371;28;20041;-89
2023/06/22 15:54:09;;;;;;;7.45;5.53;;;;;;;19.63;80.86;100272.44;10505694;28;20127;-88
2023/06/22 15:59:11;;;;;;;8.10;5.90;;;;;;;19.60;81.17;100277.88;10492021;28;20045;-88
2023/06/22 16:04:13;;;;;;;9.98;6.43;;;;;;;19.76;81.47;100271.22;10458306;28;20488;-85
2023/06/22 16:09:15;;;;;;;10.02;6.35;;;;;;;19.66;82.09;100265.34;10467974;28;20051;-86
2023/06/22 16:14:18;;;;;;;9.13;6.68;;;;;;;19.67;82.51;100265.00;10476796;28;20032;-88
2023/06/22 16:19:20;;;;;;;9.32;6.85;;;;;;;19.71;82.28;100270.66;10459443;28;20048;-88
2023/06/22 16:24:22;;;;;;;12.40;7.55;;;;;;;19.84;82.12;100250.78;10462207;28;20036;-87
2023/06/22 16:29:24;;;;;;;10.20;7.45;;;;;;;19.90;81.16;100243.00;10509894;28;20442;-85
2023/06/22 16:34:26;;;;;;;11.55;7.35;;;;;;;19.85;80.79;100243.25;10509187;28;20040;-87
2023/06/22 16:39:28;;;;;;;10.77;7.00;;;;;;;19.89;80.06;100246.94;10474887;28;20048;-87
2023/06/22 16:44:31;;;;;;;18.50;9.63;;;;;;;19.92;80.66;100237.06;10480426;28;20056;-85
2023/06/22 16:49:33;;;;;;;13.02;8.18;;;;;;;19.84;80.35;100238.84;10476344;28;20037;-89
2023/06/22 16:54:35;;;;;;;9.07;7.03;;;;;;;19.93;80.54;100244.25;10505774;28;20044;-88
2023/06/22 16:59:37;;;;;;;9.95;7.15;;;;;;;20.10;79.10;100225.25;10476310;28;20040;-86
2023/06/22 17:04:41;;;;;;;10.68;7.15;;;;;;;20.43;79.11;100224.19;10476456;28;20059;-90
2023/06/22 17:09:46;;;;;;;10.48;7.28;;;;;;;20.54;77.72;100221.72;10486567;28;20037;-89
2023/06/22 17:14:51;;;;;;;13.32;6.97;;;;;;;20.46;77.39;100209.53;10455027;28;20487;-94
2023/06/22 17:19:53;;;;;;;11.60;7.63;;;;;;;20.56;78.16;100208.22;10461829;28;20494;-88
2023/06/22 17:24:55;;;;;;;10.45;6.97;;;;;;;20.60;77.88;100209.09;10446211;28;20036;-88
2023/06/22 17:30:17;;;;;;;10.98;7.82;;;;;;;20.63;76.96;100209.19;10499831;28;20044;-86
2023/06/22 17:35:19;;;;;;;13.70;7.65;;;;;;;20.69;77.33;100207.78;10478156;28;20044;-87
2023/06/22 17:40:34;;;;;;;12.60;8.13;;;;;;;20.74;76.82;100210.28;10474085;28;20044;-85
2023/06/22 17:45:44;;;;;;;11.25;8.13;;;;;;;20.74;77.38;100204.72;10482867;28;20033;-86
2023/06/22 17:50:46;;;;;;;14.38;9.23;;;;;;;20.84;76.75;100200.59;10484970;28;20063;-83
2023/06/22 17:55:52;;;;;;;15.15;9.48;;;;;;;20.72;77.68;100190.31;10457332;28;20048;-85
2023/06/22 18:00:56;;;;;;;14.07;9.07;;;;;;;20.58;78.20;100189.97;10472645;28;20040;-92
2023/06/22 18:06:00;;;;;;;12.18;8.77;;;;;;;20.42;78.03;100186.34;10480575;28;20168;-88
2023/06/22 18:11:04;;;;;;;13.98;8.40;;;;;;;20.49;78.66;100194.91;10471565;28;20052;-89
2023/06/22 18:16:07;;;;;;;14.00;9.27;;;;;;;20.49;79.38;100192.13;10446266;28;20415;-93
2023/06/22 18:21:09;;;;;;;14.80;9.40;;;;;;;20.46;78.86;100182.47;10485567;28;20036;-89
2023/06/22 18:26:12;;;;;;;14.70;9.60;;;;;;;20.36;78.75;100187.75;10478260;28;20389;-85
2023/06/22 18:31:14;;;;;;;14.98;8.75;;;;;;;20.31;79.11;100188.03;10511601;28;20395;-88
2023/06/22 18:36:30;;;;;;;14.70;9.73;;;;;;;20.36;79.43;100187.75;10470910;28;20415;-94
2023/06/22 18:41:36;;;;;;;14.13;9.32;;;;;;;20.33;78.92;100182.91;10469978;28;20049;-88
2023/06/22 18:46:39;;;;;;;12.73;8.75;;;;;;;20.18;78.95;100181.72;10496954;28;20036;-93
2023/06/22 18:52:28;;;;;;;12.05;8.30;;;;;;;20.10;79.26;100191.84;10478444;28;20048;-94
2023/06/22 18:57:37;;;;;;;14.27;8.73;;;;;;;20.16;78.69;100184.06;10487618;28;20049;-87
2023/06/22 19:02:40;;;;;;;12.15;8.65;;;;;;;20.15;78.79;100180.47;10474318;28;20459;-86
2023/06/22 19:07:57;;;;;;;13.40;8.43;;;;;;;20.15;79.13;100176.88;10468139;28;20032;-86
2023/06/22 19:13:18;;;;;;;;;;;;;;;20.15;79.09;100169.31;10510239;28;20409;-87
2023/06/22 19:18:30;;;;;;;11.95;8.27;;;;;;;20.21;79.29;100182.97;10490995;28;19917;-86
2023/06/22 19:23:40;;;;;;;14.88;8.73;;;;;;;20.25;80.43;100179.09;10481682;28;20411;-86
2023/06/22 19:28:48;;;;;;;11.52;8.48;;;;;;;20.23;80.70;100175.88;10523479;28;20049;-87
2023/06/22 19:33:54;;;;;;;14.57;9.68;;;;;;;20.15;81.48;100180.47;10478244;28;20123;-87
2023/06/22 19:38:57;;;;;;;14.98;8.90;;;;;;;20.07;82.75;100180.59;10472462;28;20044;-85
2023/06/22 19:43:59;;;;;;;12.57;8.80;;;;;;;19.95;83.07;100175.91;10487511;28;20396;-86
2023/06/22 19:49:02;;;;;;;14.88;8.35;;;;;;;19.97;82.97;100179.16;10458096;28;20558;-88
2023/06/22 19:54:08;;;;;;;12.52;7.68;;;;;;;19.93;82.94;100181.00;10468920;28;20037;-88
2023/06/22 19:59:15;;;;;;;14.00;8.57;;;;;;;19.90;83.45;100178.13;10492681;28;20063;-87
2023/06/22 20:04:17;;;;;;;14.30;8.50;;;;;;;19.82;84.75;100185.50;10477101;28;20377;-87
2023/06/22 20:09:19;;;;;;;13.38;8.30;;;;;;;19.68;85.86;100180.31;10466786;28;20048;-90
2023/06/22 20:14:21;;;;;;;13.27;8.23;;;;;;;19.50;88.15;100173.38;10477287;28;20495;-90
2023/06/22 20:19:40;;;;;;;15.18;8.80;;;;;;;19.30;90.63;100174.38;10473993;28;20051;-90
2023/06/22 20:24:43;;;;;;;17.63;10.60;;;;;;;19.15;92.36;100173.13;10479770;28;20070;-90
2023/06/22 20:29:49;;;;;;;13.15;8.57;;;;;;;19.09;94.00;100167.00;10475855;28;20419;-89
2023/06/22 20:34:53;;;;;;;15.40;8.35;;;;;;;18.93;94.32;100158.56;10443639;28;20033;-89
2023/06/22 20:39:56;;;;;;;17.10;8.88;;;;;;;18.91;94.70;100162.81;10469284;28;20118;-88
2023/06/22 20:44:58;;;;;;;11.50;7.80;;;;;;;18.92;95.18;100156.94;10433234;28;20064;-89
2023/06/22 20:50:00;;;;;;;12.70;7.65;;;;;;;18.86;95.65;100149.97;10402615;28;20049;-89
2023/06/22 20:55:04;;;;;;;16.27;7.72;;;;;;;18.79;95.50;100149.75;10454337;28;20499;-89
2023/06/22 21:00:07;;;;;;;10.65;7.28;;;;;;;18.78;95.54;100161.22;10421839;28;20064;-91
2023/06/22 21:05:10;;;;;;;10.95;6.72;;;;;;;18.81;95.02;100154.97;10407567;28;20156;-88
2023/06/22 21:10:13;;;;;;;9.23;6.05;;;;;;;18.79;93.87;100152.53;10421255;28;20507;-88
2023/06/22 21:15:16;;;;;;;9.95;6.65;;;;;;;18.72;92.96;100141.16;10378892;28;20042;-88
2023/06/22 21:20:18;;;;;;;9.55;6.78;;;;;;;18.66;93.50;100137.81;10391243;28;20041;-88
2023/06/22 21:25:20;;;;;;;10.38;6.80;;;;;;;18.76;93.33;100144.09;10409220;28;20061;-93
2023/06/22 21:30:22;;;;;;;8.70;6.40;;;;;;;18.79;92.71;100141.41;10404284;28;20260;-88
2023/06/22 21:35:24;;;;;;;11.40;6.45;;;;;;;18.72;93.24;100135.59;10377436;28;20048;-89
2023/06/22 21:40:27;;;;;;;10.38;6.22;;;;;;;18.50;94.08;100138.81;10406823;28;20037;-89
2023/06/22 21:45:29;;;;;;;10.85;5.90;;;;;;;18.37;94.65;100136.03;10466586;28;20057;-89
2023/06/22 21:50:31;;;;;;;9.35;5.82;;;;;;;18.34;95.52;100141.47;10452518;28;20055;-89
2023/06/22 21:55:33;;;;;;;9.77;6.13;;;;;;;18.23;95.82;100137.53;10473224;28;20052;-90
2023/06/22 22:00:36;;;;;;;10.38;5.70;;;;;;;18.26;96.41;100143.22;10435945;28;20511;-89
2023/06/22 22:05:38;;;;;;;9.00;5.53;;;;;;;18.32;96.95;100136.25;10460340;28;20048;-89
2023/06/22 22:10:40;;;;;;;8.18;5.25;;;;;;;18.25;97.19;100133.25;10434048;28;20523;-89
2023/06/22 22:15:44;;;;;;;9.52;5.10;;;;;;;18.27;97.28;100133.72;10432059;28;20519;-89
2023/06/22 22:20:47;;;;;;;8.25;5.43;;;;;;;18.28;96.99;100132.56;10456472;28;20408;-89
2023/06/22 22:25:49;;;;;;;7.95;4.95;;;;;;;18.28;97.83;100129.78;10453265;28;20040;-89
2023/06/22 22:30:51;;;;;;;8.23;5.25;;;;;;;18.09;97.88;100126.75;10438547;28;20037;-89
2023/06/22 22:35:54;;;;;;;7.78;5.35;;;;;;;18.12;98.82;100130.78;10436761;28;20063;-89
2023/06/22 22:40:59;;;;;;;6.68;4.80;;;;;;;18.03;98.07;100125.31;10438296;28;20084;-89
2023/06/22 22:46:01;;;;;;;7.97;4.07;;;;;;;18.01;98.28;100130.41;10459636;28;20047;-88
2023/06/22 22:51:03;;;;;;;6.95;4.65;;;;;;;17.96;98.17;100130.63;10480261;28;20036;-89
2023/06/22 22:56:06;;;;;;;6.10;4.25;;;;;;;17.81;97.81;100131.28;10470743;28;20043;-88
2023/06/22 23:01:08;;;;;;;6.97;4.50;;;;;;;17.78;98.07;100130.81;10452555;28;20045;-88
2023/06/22 23:06:16;;;;;;;7.68;4.63;;;;;;;17.78;99.01;100136.38;10495776;28;20047;-88
2023/06/22 23:11:18;;;;;;;8.10;4.70;;;;;;;17.88;99.58;100134.34;10470606;28;20048;-88
2023/06/22 23:16:21;;;;;;;7.18;4.05;;;;;;;17.82;99.64;100130.94;10455427;28;20494;-88
2023/06/22 23:21:23;;;;;;;6.10;4.13;;;;;;;17.84;99.47;100130.59;10460627;28;20043;-88
2023/06/22 23:26:28;;;;;;;8.93;4.60;;;;;;;17.77;98.86;100131.97;10462769;28;20515;-88
2023/06/22 23:31:33;;;;;;;5.75;4.38;;;;;;;17.66;98.36;100130.72;10453441;28;20037;-88
2023/06/22 23:36:35;;;;;;;5.93;4.57;;;;;;;17.59;98.44;100130.50;10451042;28;20483;-88
2023/06/22 23:41:38;;;;;;;7.07;4.55;;;;;;;17.53;98.12;100131.84;10446889;28;20044;-88
2023/06/22 23:46:40;;;;;;;6.20;4.65;;;;;;;17.51;98.53;100131.38;10474210;28;20039;-88
2023/06/22 23:51:45;;;;;;;6.60;4.78;;;;;;;17.58;98.84;100134.41;10491031;28;20044;-85
2023/06/22 23:56:51;;;;;;;8.90;4.50;;;;;;;17.51;98.82;100125.81;10462686;28;20055;-86
